createdAt,value
2018-06-21T00:00:43.149Z,56.05
2018-06-21T00:03:10.765Z,55.86
2018-06-21T00:05:43.479Z,56.42
2018-06-21T00:08:11.516Z,56.56
2018-06-21T00:10:39.180Z,56.76
2018-06-21T00:13:06.836Z,56.72
2018-06-21T00:15:34.500Z,56.62
2018-06-21T00:18:02.118Z,56.66
2018-06-21T00:20:29.801Z,56.50
2018-06-21T00:22:57.446Z,56.67
2018-06-21T00:25:24.988Z,56.48
2018-06-21T00:27:52.612Z,56.68
2018-06-21T00:30:20.160Z,57.17
2018-06-21T00:32:47.748Z,57.37
2018-06-21T00:35:15.811Z,57.08
2018-06-21T00:37:43.455Z,57.42
2018-06-21T00:40:11.056Z,58.28
2018-06-21T00:42:38.681Z,58.85
2018-06-21T00:45:07.899Z,58.79
2018-06-21T00:47:36.069Z,59.69
2018-06-21T00:50:03.693Z,59.96
2018-06-21T00:52:31.275Z,59.89
2018-06-21T00:54:58.902Z,59.07
2018-06-21T00:57:26.433Z,59.83
2018-06-21T00:59:53.968Z,59.68
2018-06-21T01:02:21.560Z,59.41
2018-06-21T01:04:49.087Z,59.81
2018-06-21T01:07:17.234Z,59.82
2018-06-21T01:09:44.826Z,59.88
2018-06-21T01:12:12.720Z,59.78
2018-06-21T01:14:40.582Z,60.18
2018-06-21T01:17:09.017Z,60.57
2018-06-21T01:19:37.323Z,60.68
2018-06-21T01:22:05.809Z,60.60
2018-06-21T01:24:34.172Z,61.48
2018-06-21T01:27:02.661Z,63.04
2018-06-21T01:29:31.025Z,63.01
2018-06-21T01:31:59.461Z,63.57
2018-06-21T01:34:27.886Z,64.50
2018-06-21T01:36:56.580Z,64.12
2018-06-21T01:39:24.874Z,64.40
2018-06-21T01:41:53.226Z,63.86
2018-06-21T01:44:21.645Z,63.69
2018-06-21T01:46:50.310Z,63.19
2018-06-21T01:49:18.620Z,63.31
2018-06-21T01:51:47.544Z,64.07
2018-06-21T01:54:15.864Z,64.05
2018-06-21T01:56:44.261Z,64.77
2018-06-21T01:59:12.612Z,64.69
2018-06-21T02:01:41.142Z,65.56
2018-06-21T02:04:09.539Z,65.15
2018-06-21T02:06:37.930Z,64.85
2018-06-21T02:09:08.174Z,64.50
2018-06-21T02:11:36.542Z,64.30
2018-06-21T02:14:05.183Z,64.33
2018-06-21T02:16:33.891Z,64.05
2018-06-21T02:19:02.279Z,63.99
2018-06-21T02:21:30.640Z,64.31
2018-06-21T02:23:59.000Z,63.59
2018-06-21T02:26:27.336Z,62.90
2018-06-21T02:28:55.651Z,62.48
2018-06-21T02:31:23.989Z,62.30
2018-06-21T02:33:52.315Z,62.44
2018-06-21T02:36:20.664Z,63.23
2018-06-21T02:38:49.275Z,63.91
2018-06-21T02:41:20.160Z,63.63
2018-06-21T02:43:49.142Z,63.09
2018-06-21T02:46:17.684Z,63.07
2018-06-21T02:48:46.105Z,63.46
2018-06-21T02:51:14.800Z,63.85
2018-06-21T02:53:43.110Z,63.62
2018-06-21T02:56:11.615Z,63.70
2018-06-21T02:58:39.933Z,64.08
2018-06-21T03:01:08.297Z,64.01
2018-06-21T03:03:36.612Z,63.61
2018-06-21T03:06:04.981Z,64.93
2018-06-21T03:08:33.341Z,64.54
2018-06-21T03:11:01.735Z,64.80
2018-06-21T03:13:30.208Z,64.02
2018-06-21T03:15:58.957Z,64.03
2018-06-21T03:18:27.699Z,63.92
2018-06-21T03:20:56.074Z,64.53
2018-06-21T03:23:24.419Z,64.69
2018-06-21T03:25:52.774Z,64.77
2018-06-21T03:28:21.233Z,64.82
2018-06-21T03:30:49.581Z,65.12
2018-06-21T03:33:18.054Z,65.60
2018-06-21T03:35:46.490Z,64.97
2018-06-21T03:38:14.861Z,64.43
2018-06-21T03:40:43.233Z,64.90
2018-06-21T03:43:11.681Z,64.86
2018-06-21T03:45:40.133Z,64.05
2018-06-21T03:48:08.533Z,64.39
2018-06-21T03:50:36.952Z,63.92
2018-06-21T03:53:05.577Z,64.39
2018-06-21T03:55:34.121Z,64.58
2018-06-21T03:58:02.621Z,64.81
2018-06-21T04:00:31.026Z,64.94
2018-06-21T04:02:59.468Z,65.34
2018-06-21T04:05:27.924Z,66.35
2018-06-21T04:07:56.345Z,66.20
2018-06-21T04:10:24.737Z,66.23
2018-06-21T04:12:53.158Z,67.06
2018-06-21T04:15:21.642Z,67.36
2018-06-21T04:17:50.094Z,66.87
2018-06-21T04:20:18.581Z,67.39
2018-06-21T04:22:46.965Z,68.07
2018-06-21T04:25:15.572Z,68.55
2018-06-21T04:27:43.920Z,68.42
2018-06-21T04:30:12.291Z,68.60
2018-06-21T04:32:41.082Z,68.76
2018-06-21T04:35:09.563Z,68.78
2018-06-21T04:37:38.510Z,68.88
2018-06-21T04:40:06.994Z,68.38
2018-06-21T04:42:35.574Z,67.73
2018-06-21T04:45:04.116Z,68.16
2018-06-21T04:47:32.542Z,68.36
2018-06-21T04:50:01.939Z,68.13
2018-06-21T04:52:30.569Z,68.44
2018-06-21T04:54:58.972Z,68.62
2018-06-21T04:57:27.454Z,68.03
2018-06-21T04:59:55.966Z,68.37
2018-06-21T05:02:24.298Z,67.51
2018-06-21T05:04:52.698Z,67.21
2018-06-21T05:07:21.216Z,67.95
2018-06-21T05:09:49.728Z,67.14
2018-06-21T05:12:21.446Z,66.23
2018-06-21T05:14:50.734Z,65.72
2018-06-21T05:17:19.296Z,65.37
2018-06-21T05:19:47.692Z,65.35
2018-06-21T05:22:16.182Z,64.75
2018-06-21T05:24:44.582Z,64.62
2018-06-21T05:27:18.124Z,64.60
2018-06-21T05:29:46.506Z,64.78
2018-06-21T05:32:14.926Z,64.63
2018-06-21T05:34:43.261Z,64.23
2018-06-21T05:37:11.766Z,64.21
2018-06-21T05:39:40.120Z,64.40
2018-06-21T05:42:08.650Z,63.55
2018-06-21T05:44:37.110Z,63.63
2018-06-21T05:47:05.570Z,63.26
2018-06-21T05:49:34.487Z,63.11
2018-06-21T05:52:02.950Z,63.05
2018-06-21T05:54:31.364Z,62.94
2018-06-21T05:56:59.681Z,62.67
2018-06-21T05:59:28.091Z,62.73
2018-06-21T06:01:56.525Z,62.74
2018-06-21T06:04:24.928Z,62.46
2018-06-21T06:06:53.419Z,62.82
2018-06-21T06:09:21.837Z,62.84
2018-06-21T06:11:50.272Z,62.57
2018-06-21T06:14:18.867Z,62.52
2018-06-21T06:16:48.461Z,62.71
2018-06-21T06:19:16.974Z,61.61
2018-06-21T06:21:45.465Z,62.49
2018-06-21T06:24:14.211Z,62.13
2018-06-21T06:26:42.772Z,61.20
2018-06-21T06:29:11.259Z,61.04
2018-06-21T06:31:40.035Z,59.99
2018-06-21T06:34:08.395Z,59.64
2018-06-21T06:36:36.760Z,59.43
2018-06-21T06:39:13.311Z,59.89
2018-06-21T06:41:41.797Z,60.09
2018-06-21T06:44:10.851Z,59.86
2018-06-21T06:46:39.271Z,59.55
2018-06-21T06:49:08.624Z,59.54
2018-06-21T06:51:37.022Z,59.60
2018-06-21T06:54:05.411Z,59.33
2018-06-21T06:56:33.835Z,59.08
2018-06-21T06:59:02.217Z,59.10
2018-06-21T07:01:31.037Z,59.06
2018-06-21T07:03:59.437Z,59.40
2018-06-21T07:06:27.880Z,59.50
2018-06-21T07:08:56.801Z,58.66
2018-06-21T07:11:25.832Z,57.34
2018-06-21T07:13:54.709Z,56.83
2018-06-21T07:16:23.444Z,56.96
2018-06-21T07:18:52.045Z,57.05
2018-06-21T07:21:20.625Z,58.07
2018-06-21T07:23:49.011Z,57.78
2018-06-21T07:26:17.505Z,57.37
2018-06-21T07:28:45.883Z,57.05
2018-06-21T07:31:14.361Z,57.19
2018-06-21T07:33:42.812Z,56.84
2018-06-21T07:36:11.305Z,55.84
2018-06-21T07:38:39.883Z,54.58
2018-06-21T07:41:08.417Z,52.52
2018-06-21T07:43:36.940Z,52.53
2018-06-21T07:46:05.499Z,51.71
2018-06-21T07:48:34.006Z,52.79
2018-06-21T07:51:02.419Z,52.30
2018-06-21T07:53:31.002Z,51.65
2018-06-21T07:55:59.413Z,51.07
2018-06-21T07:58:28.437Z,50.32
2018-06-21T08:00:56.813Z,49.58
2018-06-21T08:03:25.156Z,49.76
2018-06-21T08:05:53.553Z,48.96
2018-06-21T08:08:21.997Z,48.87
2018-06-21T08:10:50.553Z,48.99
2018-06-21T08:13:19.080Z,48.91
2018-06-21T08:15:47.565Z,47.96
2018-06-21T08:18:16.238Z,47.82
2018-06-21T08:20:44.648Z,47.81
2018-06-21T08:23:13.605Z,47.47
2018-06-21T08:25:42.108Z,46.51
2018-06-21T08:28:10.638Z,46.84
2018-06-21T08:30:39.074Z,47.19
2018-06-21T08:33:07.483Z,47.66
2018-06-21T08:35:36.135Z,48.05
2018-06-21T08:38:04.615Z,47.77
2018-06-21T08:40:32.966Z,45.88
2018-06-21T08:43:01.365Z,46.49
2018-06-21T08:45:29.759Z,46.60
2018-06-21T08:47:58.099Z,47.34
2018-06-21T08:50:26.601Z,46.06
2018-06-21T08:52:55.051Z,45.80
2018-06-21T08:55:23.577Z,45.03
2018-06-21T08:57:52.244Z,44.12
2018-06-21T09:00:20.537Z,44.29
2018-06-21T09:02:48.909Z,43.80
2018-06-21T09:05:17.294Z,41.67
2018-06-21T09:07:45.709Z,40.50
2018-06-21T09:10:14.042Z,41.08
2018-06-21T09:12:42.486Z,41.50
2018-06-21T09:15:11.527Z,41.71
2018-06-21T09:17:39.842Z,42.44
2018-06-21T09:20:08.371Z,41.24
2018-06-21T09:22:36.780Z,40.92
2018-06-21T09:25:05.173Z,40.44
2018-06-21T09:27:33.577Z,39.93
2018-06-21T09:30:01.973Z,39.30
2018-06-21T09:32:31.221Z,39.40
2018-06-21T09:34:59.558Z,40.54
2018-06-21T09:37:34.482Z,40.83
2018-06-21T09:40:08.481Z,40.57
2018-06-21T09:42:42.163Z,40.14
2018-06-21T09:45:10.629Z,40.89
2018-06-21T09:48:47.900Z,40.93
2018-06-21T09:51:16.317Z,41.06
2018-06-21T09:53:44.709Z,41.40
2018-06-21T09:56:13.077Z,40.09
2018-06-21T09:58:41.506Z,38.90
2018-06-21T10:01:09.983Z,38.34
2018-06-21T10:03:38.321Z,37.99
2018-06-21T10:06:06.996Z,37.92
2018-06-21T10:08:35.400Z,37.26
2018-06-21T10:11:03.863Z,37.43
2018-06-21T10:13:32.536Z,36.76
2018-06-21T10:16:01.042Z,37.89
2018-06-21T10:18:29.431Z,37.50
2018-06-21T10:20:57.889Z,38.54
2018-06-21T10:23:26.271Z,38.10
2018-06-21T10:25:54.773Z,37.39
2018-06-21T10:28:23.127Z,37.72
2018-06-21T10:30:51.573Z,38.33
2018-06-21T10:33:20.237Z,38.54
2018-06-21T10:35:49.415Z,38.71
2018-06-21T10:38:17.994Z,39.35
2018-06-21T10:40:46.393Z,39.31
2018-06-21T10:43:15.587Z,39.60
2018-06-21T10:45:44.289Z,38.98
2018-06-21T10:48:12.876Z,38.28
2018-06-21T10:50:41.562Z,38.75
2018-06-21T10:53:10.094Z,38.62
2018-06-21T10:55:38.473Z,37.53
2018-06-21T10:58:07.401Z,35.59
2018-06-21T11:00:36.361Z,35.68
2018-06-21T11:03:04.893Z,36.04
2018-06-21T11:05:33.763Z,35.49
2018-06-21T11:08:02.249Z,36.33
2018-06-21T11:10:30.667Z,35.16
2018-06-21T11:12:59.292Z,38.40
2018-06-21T11:15:27.791Z,40.72
2018-06-21T11:17:56.204Z,43.48
2018-06-21T11:20:24.609Z,45.12
2018-06-21T11:22:53.352Z,45.98
2018-06-21T11:25:26.856Z,46.60
2018-06-21T11:27:55.768Z,46.59
2018-06-21T11:30:25.738Z,46.86
2018-06-21T11:32:54.410Z,48.10
2018-06-21T11:35:27.947Z,48.87
2018-06-21T11:37:56.290Z,49.40
2018-06-21T11:40:26.718Z,49.61
2018-06-21T11:42:55.936Z,48.89
2018-06-21T11:45:35.630Z,47.97
2018-06-21T11:48:03.351Z,48.55
2018-06-21T11:50:31.140Z,48.73
2018-06-21T11:52:58.837Z,48.52
2018-06-21T11:55:26.701Z,48.78
2018-06-21T11:57:54.425Z,48.90
2018-06-21T12:00:22.820Z,48.98
2018-06-21T12:02:50.418Z,49.98
2018-06-21T12:05:18.317Z,50.69
2018-06-21T12:07:47.233Z,50.55
2018-06-21T12:10:17.347Z,51.39
2018-06-21T12:12:46.189Z,51.76
2018-06-21T12:15:14.624Z,51.97
2018-06-21T12:17:43.271Z,52.91
2018-06-21T12:20:11.737Z,53.27
2018-06-21T12:22:42.420Z,53.40
2018-06-21T12:25:12.905Z,53.49
2018-06-21T12:27:42.303Z,53.80
2018-06-21T12:30:13.687Z,54.86
2018-06-21T12:32:42.227Z,55.20
2018-06-21T12:35:10.593Z,55.57
2018-06-21T12:37:39.583Z,55.54
2018-06-21T12:40:09.745Z,55.32
2018-06-21T12:42:40.743Z,55.60
2018-06-21T12:45:09.629Z,57.30
2018-06-21T12:47:40.102Z,57.89
2018-06-21T12:50:09.654Z,59.15
2018-06-21T12:52:39.895Z,59.54
2018-06-21T12:55:09.962Z,59.03
2018-06-21T12:57:40.734Z,60.45
2018-06-21T13:00:10.083Z,61.78
2018-06-21T13:02:40.334Z,62.93
2018-06-21T13:05:10.145Z,63.40
2018-06-21T13:07:39.225Z,65.26
2018-06-21T13:10:19.041Z,66.11
2018-06-21T13:13:03.870Z,67.72
2018-06-21T13:15:39.547Z,68.86
2018-06-21T13:18:08.312Z,69.36
2018-06-21T13:20:37.606Z,68.69
2018-06-21T13:23:06.242Z,68.31
2018-06-21T13:25:34.693Z,68.92
2018-06-21T13:28:03.184Z,68.41
2018-06-21T13:30:31.641Z,67.36
2018-06-21T13:33:00.110Z,68.64
2018-06-21T13:35:28.813Z,69.17
2018-06-21T13:37:57.545Z,68.86
2018-06-21T13:40:27.780Z,67.76
2018-06-21T13:42:56.242Z,67.25
2018-06-21T13:45:24.682Z,66.13
2018-06-21T13:47:53.153Z,66.13
2018-06-21T13:50:21.964Z,65.98
2018-06-21T13:52:50.350Z,67.21
2018-06-21T13:55:19.318Z,67.66
2018-06-21T13:57:49.248Z,68.63
2018-06-21T14:00:19.208Z,68.20
2018-06-21T14:02:48.116Z,68.42
2018-06-21T14:05:17.619Z,68.19
2018-06-21T14:07:47.049Z,67.17
2018-06-21T14:10:15.509Z,66.50
2018-06-21T14:12:49.455Z,68.22
2018-06-21T14:15:24.070Z,68.29
2018-06-21T14:17:55.189Z,68.54
2018-06-21T14:20:23.783Z,68.19
2018-06-21T14:22:54.794Z,68.05
2018-06-21T14:25:33.812Z,66.46
2018-06-21T14:28:02.628Z,60.33
2018-06-21T14:30:44.434Z,57.76
2018-06-21T14:33:13.168Z,55.44
2018-06-21T14:35:48.498Z,53.93
2018-06-21T14:38:21.757Z,50.63
2018-06-21T14:40:55.000Z,49.97
2018-06-21T14:43:23.453Z,47.80
2018-06-21T14:45:55.359Z,48.17
2018-06-21T14:48:23.956Z,47.38
2018-06-21T14:50:54.881Z,45.00
2018-06-21T14:53:25.283Z,46.36
2018-06-21T14:56:03.234Z,46.18
2018-06-21T14:58:36.569Z,46.89
2018-06-21T15:01:06.095Z,47.86
2018-06-21T15:03:39.949Z,47.56
2018-06-21T15:06:24.385Z,47.24
2018-06-21T15:08:56.841Z,47.83
2018-06-21T15:11:26.853Z,47.36
2018-06-21T15:13:55.455Z,46.38
2018-06-21T15:16:25.513Z,46.13
2018-06-21T15:18:56.628Z,44.14
2018-06-21T15:21:26.061Z,43.14
2018-06-21T15:23:56.517Z,43.04
2018-06-21T15:26:30.012Z,41.93
2018-06-21T15:29:00.920Z,41.93
2018-06-21T15:31:32.384Z,41.60
2018-06-21T15:34:01.197Z,42.24
2018-06-21T15:36:30.488Z,42.32
2018-06-21T15:39:04.568Z,39.33
2018-06-21T15:41:34.433Z,39.67
2018-06-21T15:44:05.270Z,39.01
2018-06-21T15:46:42.102Z,38.11
2018-06-21T15:49:14.025Z,38.84
2018-06-21T15:51:44.513Z,38.32
2018-06-21T15:54:16.514Z,37.96
2018-06-21T15:56:45.629Z,38.21
2018-06-21T15:59:14.401Z,38.05
2018-06-21T16:01:44.328Z,38.25
2018-06-21T16:04:17.283Z,38.58
2018-06-21T16:07:04.444Z,38.53
2018-06-21T16:09:36.502Z,39.45
2018-06-21T16:12:05.546Z,39.11
2018-06-21T16:14:34.130Z,39.65
2018-06-21T16:17:02.610Z,39.31
2018-06-21T16:19:31.170Z,40.00
2018-06-21T16:21:59.902Z,40.19
2018-06-21T16:24:28.467Z,40.11
2018-06-21T16:27:01.984Z,38.31
2018-06-21T16:29:30.543Z,38.26
2018-06-21T16:31:58.954Z,38.85
2018-06-21T16:34:27.564Z,37.85
2018-06-21T16:37:01.266Z,38.06
2018-06-21T16:39:29.817Z,37.85
2018-06-21T16:41:58.264Z,37.00
2018-06-21T16:44:27.044Z,37.02
2018-06-21T16:46:55.594Z,36.98
2018-06-21T16:49:24.466Z,37.04
2018-06-21T16:51:52.964Z,36.53
2018-06-21T16:54:21.442Z,36.82
2018-06-21T16:56:49.860Z,36.58
2018-06-21T16:59:18.620Z,36.57
2018-06-21T17:01:47.976Z,36.31
2018-06-21T17:04:16.490Z,36.30
2018-06-21T17:06:44.959Z,36.63
2018-06-21T17:09:13.452Z,35.63
2018-06-21T17:11:42.158Z,35.30
2018-06-21T17:14:10.887Z,34.81
2018-06-21T17:16:44.597Z,35.02
2018-06-21T17:19:13.109Z,34.42
2018-06-21T17:21:41.794Z,34.66
2018-06-21T17:24:10.214Z,34.28
2018-06-21T17:26:43.804Z,34.51
2018-06-21T17:29:12.313Z,34.84
2018-06-21T17:31:41.396Z,35.45
2018-06-21T17:34:10.213Z,35.77
2018-06-21T17:36:43.993Z,35.50
2018-06-21T17:39:12.793Z,35.14
2018-06-21T17:41:42.341Z,35.33
2018-06-21T17:44:12.312Z,35.34
2018-06-21T17:46:47.732Z,35.59
2018-06-21T17:49:17.908Z,35.50
2018-06-21T17:51:46.743Z,35.60
2018-06-21T17:54:15.418Z,36.24
2018-06-21T17:56:45.138Z,36.07
2018-06-21T17:59:15.708Z,36.17
2018-06-21T18:01:44.516Z,36.76
2018-06-21T18:04:13.514Z,36.30
2018-06-21T18:07:04.617Z,34.96
2018-06-21T18:09:33.367Z,35.14
2018-06-21T18:12:02.014Z,34.68
2018-06-21T18:14:32.383Z,34.57
2018-06-21T18:17:05.976Z,34.70
2018-06-21T18:19:34.454Z,34.65
2018-06-21T18:22:02.870Z,35.05
2018-06-21T18:24:31.326Z,34.95
2018-06-21T18:27:13.480Z,35.28
2018-06-21T18:29:42.078Z,35.20
2018-06-21T18:32:10.758Z,35.41
2018-06-21T18:34:39.364Z,36.07
2018-06-21T18:37:07.880Z,36.64
2018-06-21T18:39:36.494Z,36.04
2018-06-21T18:42:05.482Z,36.12
2018-06-21T18:44:34.033Z,36.75
2018-06-21T18:47:08.136Z,36.53
2018-06-21T18:49:36.769Z,37.09
2018-06-21T18:52:05.273Z,37.29
2018-06-21T18:54:33.804Z,37.49
2018-06-21T18:57:11.715Z,37.24
2018-06-21T18:59:40.234Z,37.57
2018-06-21T19:02:08.678Z,37.65
2018-06-21T19:04:37.386Z,38.33
2018-06-21T19:07:11.482Z,38.72
2018-06-21T19:09:45.578Z,38.53
2018-06-21T19:12:14.890Z,39.27
2018-06-21T19:14:43.472Z,39.23
2018-06-21T19:17:12.210Z,39.49
2018-06-21T19:19:40.749Z,38.94
2018-06-21T19:22:09.288Z,39.64
2018-06-21T19:24:37.739Z,39.39
2018-06-21T19:27:15.684Z,40.35
2018-06-21T19:29:44.118Z,40.42
2018-06-21T19:32:12.620Z,41.46
2018-06-21T19:34:41.144Z,41.98
2018-06-21T19:37:09.832Z,41.98
2018-06-21T19:39:38.870Z,42.08
2018-06-21T19:42:07.337Z,41.96
2018-06-21T19:44:35.774Z,42.43
2018-06-21T19:47:04.364Z,42.35
2018-06-21T19:49:32.865Z,42.33
2018-06-21T19:52:01.325Z,42.26
2018-06-21T19:54:29.776Z,42.46
2018-06-21T19:56:58.385Z,42.32
2018-06-21T19:59:26.844Z,43.58
2018-06-21T20:01:55.164Z,43.27
2018-06-21T20:04:23.718Z,43.77
2018-06-21T20:06:52.150Z,44.52
2018-06-21T20:09:20.641Z,44.62
2018-06-21T20:11:49.149Z,44.93
2018-06-21T20:14:17.621Z,45.13
2018-06-21T20:16:46.146Z,45.49
2018-06-21T20:19:16.784Z,46.41
2018-06-21T20:21:45.428Z,46.44
2018-06-21T20:24:13.984Z,46.53
2018-06-21T20:26:42.454Z,46.47
2018-06-21T20:29:16.373Z,46.82
2018-06-21T20:31:44.992Z,47.15
2018-06-21T20:34:13.592Z,46.91
2018-06-21T20:36:42.088Z,47.73
2018-06-21T20:39:11.450Z,47.33
2018-06-21T20:41:39.972Z,47.48
2018-06-21T20:44:08.505Z,47.18
2018-06-21T20:46:37.930Z,47.59
2018-06-21T20:49:06.321Z,47.84
2018-06-21T20:51:34.744Z,47.64
2018-06-21T20:54:03.082Z,48.04
2018-06-21T20:56:31.546Z,48.58
2018-06-21T20:58:59.834Z,48.22
2018-06-21T21:01:28.292Z,48.71
2018-06-21T21:03:56.669Z,48.72
2018-06-21T21:06:25.868Z,48.93
2018-06-21T21:08:54.236Z,49.10
2018-06-21T21:11:22.614Z,49.69
2018-06-21T21:13:51.042Z,49.15
2018-06-21T21:16:19.545Z,49.59
2018-06-21T21:18:47.971Z,50.21
2018-06-21T21:21:16.354Z,50.17
2018-06-21T21:23:44.710Z,50.42
2018-06-21T21:26:13.194Z,49.87
2018-06-21T21:28:41.589Z,49.91
2018-06-21T21:31:09.959Z,50.23
2018-06-21T21:33:38.386Z,50.26
2018-06-21T21:36:07.987Z,50.18
2018-06-21T21:38:36.336Z,50.94
2018-06-21T21:41:04.739Z,50.40
2018-06-21T21:43:33.186Z,50.47
2018-06-21T21:46:01.571Z,51.01
2018-06-21T21:48:29.926Z,50.92
2018-06-21T21:50:58.412Z,51.27
2018-06-21T21:53:26.784Z,51.16
2018-06-21T21:55:55.300Z,51.47
2018-06-21T21:58:23.682Z,50.95
2018-06-21T22:00:54.262Z,51.32
2018-06-21T22:03:22.580Z,51.43
2018-06-21T22:05:51.138Z,51.51
2018-06-21T22:08:19.577Z,51.17
2018-06-21T22:10:48.446Z,51.62
2018-06-21T22:13:17.131Z,51.57
2018-06-21T22:15:45.690Z,51.39
2018-06-21T22:18:14.034Z,51.11
2018-06-21T22:23:18.686Z,51.37
2018-06-21T22:25:47.265Z,51.72
2018-06-21T22:28:15.652Z,52.07
2018-06-21T22:30:44.033Z,52.09
2018-06-21T22:33:12.426Z,52.10
2018-06-21T22:35:41.032Z,52.08
2018-06-21T22:38:09.635Z,52.04
2018-06-21T22:40:38.123Z,51.95
2018-06-21T22:43:06.460Z,51.13
2018-06-21T22:45:34.933Z,51.44
2018-06-21T22:48:03.306Z,50.83
2018-06-21T22:50:31.711Z,50.28
2018-06-21T22:53:00.182Z,50.24
2018-06-21T22:55:28.566Z,49.68
2018-06-21T22:57:56.916Z,49.75
2018-06-21T23:00:25.298Z,49.73
2018-06-21T23:02:53.674Z,49.76
2018-06-21T23:05:22.117Z,49.77
2018-06-21T23:07:50.523Z,49.96
2018-06-21T23:10:18.918Z,49.89
2018-06-21T23:12:47.274Z,50.36
2018-06-21T23:15:15.814Z,50.09
2018-06-21T23:17:44.346Z,50.45
2018-06-21T23:20:12.930Z,50.91
2018-06-21T23:22:41.339Z,51.11
2018-06-21T23:25:09.779Z,51.67
2018-06-21T23:27:38.189Z,52.31
2018-06-21T23:30:06.712Z,51.88
2018-06-21T23:32:35.060Z,51.54
2018-06-21T23:35:03.558Z,51.45
2018-06-21T23:37:31.968Z,51.58
2018-06-21T23:40:00.386Z,51.56
2018-06-21T23:42:28.792Z,51.14
2018-06-21T23:44:57.189Z,51.51
2018-06-21T23:47:26.113Z,51.87
2018-06-21T23:49:54.525Z,51.54
2018-06-21T23:52:22.836Z,51.99
2018-06-21T23:54:51.273Z,51.64
2018-06-21T23:57:19.614Z,51.71
2018-06-21T23:59:48.052Z,52.00
